createdAt,value
2019-05-18T00:01:35.573Z,98098.80
2019-05-18T00:04:06.142Z,98103.54
2019-05-18T00:06:35.340Z,98104.52
2019-05-18T00:09:09.005Z,98108.25
2019-05-18T00:11:39.602Z,98111.25
2019-05-18T00:14:16.274Z,98113.79
2019-05-18T00:16:47.634Z,98109.77
2019-05-18T00:19:18.634Z,98109.02
2019-05-18T00:21:48.763Z,98108.88
2019-05-18T00:24:17.927Z,98112.52
2019-05-18T00:26:47.454Z,98112.40
2019-05-18T00:29:19.192Z,98108.34
2019-05-18T00:31:49.876Z,98108.06
2019-05-18T00:34:21.238Z,98112.15
2019-05-18T00:36:51.313Z,98115.22
2019-05-18T00:39:20.487Z,98110.68
2019-05-18T00:41:51.728Z,98115.17
2019-05-18T00:44:21.414Z,98115.42
2019-05-18T00:46:51.995Z,98110.11
2019-05-18T00:49:21.721Z,98105.37
2019-05-18T00:51:51.296Z,98110.40
2019-05-18T00:54:20.772Z,98102.48
2019-05-18T00:56:52.276Z,98105.31
2019-05-18T00:59:22.225Z,98108.63
2019-05-18T01:01:52.984Z,98106.70
2019-05-18T01:04:22.458Z,98107.55
2019-05-18T01:06:51.973Z,98106.39
2019-05-18T01:09:25.675Z,98104.31
2019-05-18T01:11:55.246Z,98092.19
2019-05-18T01:14:25.626Z,98101.61
2019-05-18T01:16:55.106Z,98095.09
2019-05-18T01:19:30.330Z,98095.87
2019-05-18T01:22:02.524Z,98094.30
2019-05-18T01:24:33.900Z,98087.51
2019-05-18T01:27:03.691Z,98090.57
2019-05-18T01:29:33.931Z,98094.58
2019-05-18T01:32:03.469Z,98092.33
2019-05-18T01:34:32.891Z,98097.58
2019-05-18T01:37:02.713Z,98087.83
2019-05-18T01:39:32.246Z,98088.40
2019-05-18T01:42:03.322Z,98089.63
2019-05-18T01:44:33.667Z,98088.72
2019-05-18T01:47:02.858Z,98084.56
2019-05-18T01:49:32.293Z,98086.91
2019-05-18T01:52:01.507Z,98076.39
2019-05-18T01:54:33.068Z,98082.48
2019-05-18T01:57:02.249Z,98085.52
2019-05-18T01:59:32.053Z,98091.73
2019-05-18T02:02:01.241Z,98091.09
2019-05-18T02:04:40.337Z,98089.85
2019-05-18T02:07:09.639Z,98091.05
2019-05-18T02:09:39.229Z,98099.62
2019-05-18T02:12:08.407Z,98101.78
2019-05-18T02:14:38.134Z,98098.16
2019-05-18T02:17:07.851Z,98104.05
2019-05-18T02:19:37.458Z,98095.91
2019-05-18T02:22:08.141Z,98101.20
2019-05-18T02:24:37.882Z,98099.05
2019-05-18T02:27:07.341Z,98094.10
2019-05-18T02:29:40.433Z,98105.40
2019-05-18T02:32:09.912Z,98102.84
2019-05-18T02:34:39.869Z,98102.71
2019-05-18T02:37:10.052Z,98113.92
2019-05-18T02:39:40.116Z,98102.50
2019-05-18T02:42:10.070Z,98101.56
2019-05-18T02:44:40.775Z,98095.42
2019-05-18T02:47:12.142Z,98094.14
2019-05-18T02:49:41.594Z,98096.66
2019-05-18T02:52:11.111Z,98094.27
2019-05-18T02:54:41.121Z,98098.84
2019-05-18T02:57:11.135Z,98097.27
2019-05-18T02:59:40.636Z,98094.40
2019-05-18T03:02:14.491Z,98095.23
2019-05-18T03:04:45.623Z,98093.56
2019-05-18T03:07:14.799Z,98095.23
2019-05-18T03:09:46.758Z,98098.72
2019-05-18T03:12:16.202Z,98094.75
2019-05-18T03:14:47.256Z,98094.39
2019-05-18T03:17:17.836Z,98097.88
2019-05-18T03:19:47.779Z,98094.52
2019-05-18T03:22:20.907Z,98095.73
2019-05-18T03:24:50.439Z,98092.95
2019-05-18T03:27:19.892Z,98093.06
2019-05-18T03:29:53.004Z,98088.87
2019-05-18T03:32:26.668Z,98081.52
2019-05-18T03:34:57.866Z,98087.56
2019-05-18T03:37:29.459Z,98084.79
2019-05-18T03:39:58.657Z,98086.23
2019-05-18T03:42:28.096Z,98089.12
2019-05-18T03:44:57.740Z,98086.81
2019-05-18T03:47:28.695Z,98089.20
2019-05-18T03:50:03.045Z,98082.63
2019-05-18T03:52:33.081Z,98084.78
2019-05-18T03:55:02.791Z,98087.30
2019-05-18T03:57:32.763Z,98086.22
2019-05-18T04:00:02.601Z,98086.94
2019-05-18T04:02:31.770Z,98088.04
2019-05-18T04:05:05.902Z,98085.50
2019-05-18T04:07:36.014Z,98082.50
2019-05-18T04:10:07.114Z,98085.02
2019-05-18T04:12:39.050Z,98091.65
2019-05-18T04:15:10.395Z,98097.88
2019-05-18T04:17:40.890Z,98095.00
2019-05-18T04:20:10.790Z,98092.84
2019-05-18T04:22:40.453Z,98101.14
2019-05-18T04:25:10.045Z,98103.53
2019-05-18T04:27:40.356Z,98100.05
2019-05-18T04:30:10.257Z,98107.12
2019-05-18T04:32:39.846Z,98112.78
2019-05-18T04:35:11.474Z,98106.66
2019-05-18T04:37:41.342Z,98113.73
2019-05-18T04:40:12.010Z,98113.70
2019-05-18T04:42:41.196Z,98119.75
2019-05-18T04:45:11.254Z,98115.20
2019-05-18T04:47:41.262Z,98118.31
2019-05-18T04:50:12.723Z,98120.60
2019-05-18T04:52:43.091Z,98118.08
2019-05-18T04:55:12.512Z,98112.56
2019-05-18T04:57:42.179Z,98118.31
2019-05-18T05:00:13.318Z,98115.92
2019-05-18T05:02:42.802Z,98119.42
2019-05-18T05:05:12.771Z,98119.77
2019-05-18T05:07:42.785Z,98124.21
2019-05-18T05:10:12.253Z,98126.37
2019-05-18T05:12:41.776Z,98128.80
2019-05-18T05:15:11.945Z,98127.75
2019-05-18T05:17:42.671Z,98123.66
2019-05-18T05:20:19.676Z,98128.79
2019-05-18T05:22:45.277Z,98133.00
2019-05-18T05:25:15.004Z,98133.59
2019-05-18T05:27:44.988Z,98140.08
2019-05-18T05:30:16.053Z,98131.63
2019-05-18T05:32:45.215Z,98127.52
2019-05-18T05:35:16.892Z,98125.23
2019-05-18T05:37:46.375Z,98123.73
2019-05-18T05:40:16.348Z,98132.51
2019-05-18T05:42:46.327Z,98133.52
2019-05-18T05:45:15.864Z,98132.14
2019-05-18T05:47:45.294Z,98130.75
2019-05-18T05:50:18.029Z,98131.42
2019-05-18T05:52:48.155Z,98134.30
2019-05-18T05:55:20.795Z,98141.47
2019-05-18T05:57:50.811Z,98143.33
2019-05-18T06:00:21.417Z,98144.49
2019-05-18T06:02:51.672Z,98140.86
2019-05-18T06:05:21.127Z,98145.38
2019-05-18T06:07:53.364Z,98135.86
2019-05-18T06:10:45.435Z,98144.17
2019-05-18T06:13:20.923Z,98137.67
2019-05-18T06:16:01.211Z,98138.86
2019-05-18T06:18:31.098Z,98138.80
2019-05-18T06:21:00.651Z,98139.61
2019-05-18T06:23:29.855Z,98143.59
2019-05-18T06:26:01.358Z,98138.14
2019-05-18T06:28:31.146Z,98144.40
2019-05-18T06:31:00.870Z,98139.44
2019-05-18T06:33:30.400Z,98137.45
2019-05-18T06:35:59.649Z,98136.95
2019-05-18T06:38:30.398Z,98143.83
2019-05-18T06:40:59.590Z,98143.50
2019-05-18T06:43:28.812Z,98139.28
2019-05-18T06:45:58.280Z,98149.02
2019-05-18T06:48:27.477Z,98134.39
2019-05-18T06:51:06.784Z,98137.84
2019-05-18T06:53:28.743Z,98142.95
2019-05-18T06:55:58.762Z,98147.82
2019-05-18T06:58:28.251Z,98146.48
2019-05-18T07:00:58.348Z,98141.05
2019-05-18T07:03:28.426Z,98145.16
2019-05-18T07:05:57.859Z,98141.90
2019-05-18T07:08:27.051Z,98142.67
2019-05-18T07:10:56.524Z,98137.11
2019-05-18T07:13:26.894Z,98133.18
2019-05-18T07:15:59.507Z,98124.25
2019-05-18T07:18:30.020Z,98113.64
2019-05-18T07:21:03.181Z,98109.75
2019-05-18T07:23:32.350Z,98096.29
2019-05-18T07:26:01.594Z,98088.05
2019-05-18T07:28:31.073Z,98081.39
2019-05-18T07:31:00.575Z,98068.64
2019-05-18T07:33:35.018Z,98067.33
2019-05-18T07:36:05.597Z,98073.56
2019-05-18T07:38:35.045Z,98077.30
2019-05-18T07:41:04.285Z,98069.75
2019-05-18T07:43:35.306Z,98067.98
2019-05-18T07:46:08.275Z,98068.78
2019-05-18T07:48:36.267Z,98067.69
2019-05-18T07:51:06.743Z,98064.19
2019-05-18T07:53:35.908Z,98061.06
2019-05-18T07:56:06.857Z,98061.52
2019-05-18T07:58:37.174Z,98063.41
2019-05-18T08:01:08.366Z,98068.44
2019-05-18T08:03:39.070Z,98063.52
2019-05-18T08:06:08.606Z,98062.47
2019-05-18T08:08:38.470Z,98064.62
2019-05-18T08:11:07.471Z,98063.48
2019-05-18T08:13:37.257Z,98061.56
2019-05-18T08:16:07.243Z,98062.50
2019-05-18T08:18:38.587Z,98060.03
2019-05-18T08:21:10.396Z,98060.66
2019-05-18T08:23:39.827Z,98057.70
2019-05-18T08:26:09.013Z,98060.69
2019-05-18T08:28:38.160Z,98052.67
2019-05-18T08:31:07.311Z,98056.01
2019-05-18T08:33:36.533Z,98054.52
2019-05-18T08:36:05.751Z,98055.17
2019-05-18T08:38:34.930Z,98050.80
2019-05-18T08:41:04.104Z,98050.82
2019-05-18T08:43:33.279Z,98048.62
2019-05-18T08:46:02.482Z,98046.69
2019-05-18T08:48:31.645Z,98048.66
2019-05-18T08:51:00.817Z,98048.86
2019-05-18T08:53:30.014Z,98044.48
2019-05-18T08:55:59.201Z,98045.11
2019-05-18T08:58:28.373Z,98044.82
2019-05-18T09:00:57.539Z,98048.98
2019-05-18T09:03:27.072Z,98045.62
2019-05-18T09:05:57.021Z,98047.47
2019-05-18T09:08:26.466Z,98046.44
2019-05-18T09:10:58.280Z,98044.03
2019-05-18T09:13:27.667Z,98041.42
2019-05-18T09:15:59.570Z,98041.63
2019-05-18T09:18:33.403Z,98042.41
2019-05-18T09:21:04.572Z,98045.11
2019-05-18T09:23:35.802Z,98046.77
2019-05-18T09:26:06.573Z,98044.19
2019-05-18T09:28:57.137Z,98044.38
2019-05-18T09:31:28.011Z,98039.88
2019-05-18T09:33:57.197Z,98033.55
2019-05-18T09:36:28.754Z,98032.14
2019-05-18T09:38:58.272Z,98037.06
2019-05-18T09:41:27.786Z,98036.80
2019-05-18T09:43:57.479Z,98042.95
2019-05-18T09:46:26.912Z,98035.77
2019-05-18T09:48:56.659Z,98037.27
2019-05-18T09:51:25.857Z,98027.11
2019-05-18T09:53:55.032Z,98030.68
2019-05-18T09:56:24.485Z,98030.24
2019-05-18T09:58:54.146Z,98035.10
2019-05-18T10:01:23.595Z,98022.59
2019-05-18T10:03:52.831Z,98024.33
2019-05-18T10:06:22.345Z,98027.37
2019-05-18T10:08:51.542Z,98018.42
2019-05-18T10:11:20.712Z,98015.72
2019-05-18T10:13:50.207Z,98023.66
2019-05-18T10:16:20.633Z,98023.33
2019-05-18T10:18:51.204Z,98019.41
2019-05-18T10:21:20.716Z,98020.71
2019-05-18T10:23:50.119Z,98023.98
2019-05-18T10:26:19.303Z,98017.40
2019-05-18T10:28:51.103Z,98016.16
2019-05-18T10:31:20.287Z,98011.32
2019-05-18T10:33:49.613Z,98008.75
2019-05-18T10:36:20.509Z,98008.83
2019-05-18T10:38:50.226Z,98000.19
2019-05-18T10:41:20.568Z,98000.19
2019-05-18T10:43:50.696Z,98001.17
2019-05-18T10:46:20.215Z,97997.69
2019-05-18T10:48:50.176Z,97996.27
2019-05-18T10:51:19.630Z,97984.68
2019-05-18T10:53:49.116Z,97975.52
2019-05-18T10:56:20.765Z,97975.52
2019-05-18T10:58:55.352Z,97983.54
2019-05-18T11:01:24.529Z,97981.11
2019-05-18T11:03:54.919Z,97981.11
2019-05-18T11:06:24.402Z,97975.91
2019-05-18T11:08:56.138Z,97913.53
2019-05-18T11:11:25.546Z,97973.28
2019-05-18T11:13:55.867Z,97981.57
2019-05-18T11:16:25.625Z,97972.31
2019-05-18T11:18:54.823Z,97969.94
2019-05-18T11:21:24.782Z,97972.86
2019-05-18T11:23:54.222Z,97972.23
2019-05-18T11:26:23.680Z,97968.36
2019-05-18T11:28:56.924Z,97963.66
2019-05-18T11:31:26.941Z,97963.66
2019-05-18T11:33:56.653Z,97958.94
2019-05-18T11:36:26.859Z,97954.06
2019-05-18T11:38:56.667Z,97957.45
2019-05-18T11:41:25.839Z,97960.97
2019-05-18T11:43:55.856Z,97954.49
2019-05-18T11:46:25.563Z,97932.20
2019-05-18T11:48:54.954Z,97949.38
2019-05-18T11:51:24.954Z,97941.26
2019-05-18T11:53:58.260Z,97950.84
2019-05-18T11:56:27.938Z,97942.35
2019-05-18T11:58:58.803Z,97948.31
2019-05-18T12:01:29.316Z,97939.41
2019-05-18T12:03:58.471Z,97946.52
2019-05-18T12:06:29.262Z,97949.00
2019-05-18T12:08:58.834Z,97943.77
2019-05-18T12:11:27.960Z,97941.32
2019-05-18T12:13:57.935Z,97942.64
2019-05-18T12:16:27.716Z,97937.83
2019-05-18T12:18:58.894Z,97935.30
2019-05-18T12:21:29.576Z,97937.36
2019-05-18T12:24:14.057Z,97942.62
2019-05-18T12:26:32.764Z,97937.59
2019-05-18T12:29:06.225Z,97934.44
2019-05-18T12:31:36.203Z,97926.49
2019-05-18T12:34:07.561Z,97932.41
2019-05-18T12:36:38.539Z,97929.42
2019-05-18T12:39:12.011Z,97927.89
2019-05-18T12:41:43.313Z,97924.72
2019-05-18T12:44:13.720Z,97923.35
2019-05-18T12:46:43.518Z,97922.18
2019-05-18T12:49:12.956Z,97922.07
2019-05-18T12:51:44.224Z,97922.23
2019-05-18T12:54:13.412Z,97919.12
2019-05-18T12:56:42.658Z,97916.08
2019-05-18T12:59:12.088Z,97918.83
2019-05-18T13:01:42.078Z,97911.78
2019-05-18T13:04:11.541Z,97917.63
2019-05-18T13:06:41.171Z,97919.97
2019-05-18T13:09:10.333Z,97919.78
2019-05-18T13:11:43.781Z,97915.47
2019-05-18T13:14:13.328Z,97916.91
2019-05-18T13:16:43.245Z,97913.55
2019-05-18T13:19:26.153Z,97908.53
2019-05-18T13:21:59.638Z,97911.22
2019-05-18T13:24:44.771Z,97908.88
2019-05-18T13:27:08.174Z,97905.67
2019-05-18T13:29:37.920Z,97903.95
2019-05-18T13:32:08.844Z,97895.51
2019-05-18T13:34:41.611Z,97887.21
2019-05-18T13:37:10.870Z,97887.87
2019-05-18T13:39:40.305Z,97877.88
2019-05-18T13:42:10.133Z,97886.86
2019-05-18T13:44:39.543Z,97882.78
2019-05-18T13:47:09.491Z,97882.39
2019-05-18T13:49:38.645Z,97878.91
2019-05-18T13:52:10.919Z,97882.17
2019-05-18T13:54:40.104Z,97876.05
2019-05-18T13:57:13.546Z,97876.61
2019-05-18T13:59:42.976Z,97869.16
2019-05-18T14:02:12.847Z,97866.31
2019-05-18T14:04:42.802Z,97866.91
2019-05-18T14:07:15.215Z,97861.41
2019-05-18T14:09:44.496Z,97864.00
2019-05-18T14:12:13.641Z,97859.46
2019-05-18T14:14:42.836Z,97859.74
2019-05-18T14:17:12.270Z,97857.20
2019-05-18T14:19:41.481Z,97860.38
2019-05-18T14:22:12.747Z,97865.02
2019-05-18T14:24:42.608Z,97863.05
2019-05-18T14:27:12.055Z,97852.39
2019-05-18T14:29:41.583Z,97850.88
2019-05-18T14:32:12.651Z,97846.39
2019-05-18T14:34:43.158Z,97851.31
2019-05-18T14:37:14.461Z,97847.52
2019-05-18T14:39:43.683Z,97849.01
2019-05-18T14:42:13.125Z,97850.14
2019-05-18T14:44:42.996Z,97842.78
2019-05-18T14:47:15.760Z,97847.28
2019-05-18T14:49:45.590Z,97846.95
2019-05-18T14:52:18.193Z,97845.56
2019-05-18T14:54:47.942Z,97845.39
2019-05-18T14:57:17.122Z,97848.08
2019-05-18T14:59:47.067Z,97844.34
2019-05-18T15:02:21.851Z,97847.15
2019-05-18T15:04:53.441Z,97835.52
2019-05-18T15:07:23.304Z,97836.41
2019-05-18T15:09:52.491Z,97831.70
2019-05-18T15:12:21.642Z,97826.64
2019-05-18T15:14:51.048Z,97825.56
2019-05-18T15:17:20.536Z,97817.75
2019-05-18T15:19:50.311Z,97818.93
2019-05-18T15:22:19.870Z,97818.59
2019-05-18T15:24:49.116Z,97824.27
2019-05-18T15:27:18.378Z,97830.02
2019-05-18T15:29:47.622Z,97829.91
2019-05-18T15:32:18.410Z,97828.97
2019-05-18T15:34:47.716Z,97829.43
2019-05-18T15:37:17.274Z,97826.15
2019-05-18T15:39:46.457Z,97828.61
2019-05-18T15:42:15.690Z,97828.05
2019-05-18T15:44:46.925Z,97825.92
2019-05-18T15:47:16.582Z,97826.75
2019-05-18T15:49:47.951Z,97826.64
2019-05-18T15:52:17.388Z,97824.45
2019-05-18T15:54:48.658Z,97820.13
2019-05-18T15:57:30.556Z,97823.26
2019-05-18T16:00:06.206Z,97836.00
2019-05-18T16:02:32.794Z,97839.44
2019-05-18T16:05:02.601Z,97838.86
2019-05-18T16:07:31.827Z,97838.44
2019-05-18T16:10:00.996Z,97839.36
2019-05-18T16:12:30.186Z,97838.67
2019-05-18T16:15:00.985Z,97835.55
2019-05-18T16:17:38.823Z,97837.64
2019-05-18T16:20:01.076Z,97841.20
2019-05-18T16:22:30.593Z,97838.20
2019-05-18T16:24:59.771Z,97840.48
2019-05-18T16:27:32.024Z,97834.91
2019-05-18T16:30:01.477Z,97834.47
2019-05-18T16:32:31.534Z,97831.48
2019-05-18T16:35:00.679Z,97827.00
2019-05-18T16:37:30.167Z,97832.72
2019-05-18T16:39:59.438Z,97827.08
2019-05-18T16:42:29.740Z,97819.60
2019-05-18T16:45:00.366Z,97822.94
2019-05-18T16:47:30.656Z,97819.55
2019-05-18T16:50:00.137Z,97811.55
2019-05-18T16:52:30.376Z,97822.92
2019-05-18T16:54:59.360Z,97829.78
2019-05-18T16:57:30.430Z,97827.71
2019-05-18T17:00:03.601Z,97821.63
2019-05-18T17:02:33.050Z,97824.31
2019-05-18T17:05:02.805Z,97820.38
2019-05-18T17:07:33.091Z,97823.59
2019-05-18T17:10:05.387Z,97814.27
2019-05-18T17:12:34.844Z,97814.61
2019-05-18T17:15:08.183Z,97818.55
2019-05-18T17:17:39.211Z,97821.31
2019-05-18T17:20:13.158Z,97823.01
2019-05-18T17:22:42.616Z,97820.73
2019-05-18T17:25:13.254Z,97819.59
2019-05-18T17:27:45.750Z,97816.69
2019-05-18T17:30:19.503Z,97820.02
2019-05-18T17:32:49.732Z,97824.59
2019-05-18T17:35:24.049Z,97825.20
2019-05-18T17:37:53.239Z,97824.62
2019-05-18T17:40:23.220Z,97823.39
2019-05-18T17:42:52.382Z,97817.49
2019-05-18T17:45:22.729Z,97821.05
2019-05-18T17:47:53.589Z,97821.67
2019-05-18T17:50:24.048Z,97826.56
2019-05-18T17:52:57.172Z,97824.69
2019-05-18T17:55:33.373Z,97827.48
2019-05-18T17:58:11.662Z,97827.61
2019-05-18T18:00:42.135Z,97833.84
2019-05-18T18:03:15.076Z,97832.05
2019-05-18T18:05:46.510Z,97832.06
2019-05-18T18:08:15.868Z,97822.81
2019-05-18T18:10:47.508Z,97830.38
2019-05-18T18:13:17.564Z,97833.41
2019-05-18T18:15:47.168Z,97841.09
2019-05-18T18:18:16.515Z,97843.98
2019-05-18T18:20:47.723Z,97845.12
2019-05-18T18:23:16.887Z,97844.55
2019-05-18T18:25:47.214Z,97848.54
2019-05-18T18:28:16.626Z,97853.05
2019-05-18T18:30:46.587Z,97853.69
2019-05-18T18:33:16.310Z,97853.45
2019-05-18T18:35:45.978Z,97856.98
2019-05-18T18:38:19.354Z,97853.77
2019-05-18T18:40:48.801Z,97850.77
2019-05-18T18:43:20.449Z,97847.55
2019-05-18T18:45:48.947Z,97849.13
2019-05-18T18:48:19.345Z,97848.52
2019-05-18T18:50:48.882Z,97854.73
2019-05-18T18:53:18.043Z,97857.48
2019-05-18T18:55:47.749Z,97861.63
2019-05-18T18:58:16.931Z,97862.36
2019-05-18T19:00:46.399Z,97863.53
2019-05-18T19:03:15.572Z,97867.81
2019-05-18T19:05:45.318Z,97876.03
2019-05-18T19:08:23.678Z,97876.06
2019-05-18T19:10:53.199Z,97885.34
2019-05-18T19:13:22.787Z,97888.44
2019-05-18T19:15:52.622Z,97889.16
2019-05-18T19:18:22.713Z,97896.45
2019-05-18T19:20:52.645Z,97895.69
2019-05-18T19:23:22.643Z,97895.70
2019-05-18T19:25:52.146Z,97904.80
2019-05-18T19:28:21.381Z,97906.27
2019-05-18T19:30:52.132Z,97902.31
2019-05-18T19:33:28.113Z,97907.08
2019-05-18T19:35:57.217Z,97913.59
2019-05-18T19:38:29.095Z,97911.64
2019-05-18T19:40:59.074Z,97920.09
2019-05-18T19:43:28.722Z,97921.82
2019-05-18T19:45:57.946Z,97931.10
2019-05-18T19:48:27.346Z,97936.09
2019-05-18T19:50:56.504Z,97936.09
2019-05-18T19:53:27.858Z,97953.12
2019-05-18T19:55:59.709Z,97961.91
2019-05-18T19:58:29.797Z,97976.70
2019-05-18T20:00:59.759Z,97983.44
2019-05-18T20:03:29.078Z,97986.87
2019-05-18T20:06:02.195Z,97989.44
2019-05-18T20:08:32.590Z,98004.00
2019-05-18T20:11:05.296Z,98002.84
2019-05-18T20:13:34.696Z,97997.68
2019-05-18T20:16:03.986Z,97993.65
2019-05-18T20:18:33.686Z,98000.19
2019-05-18T20:21:05.148Z,98012.05
2019-05-18T20:23:35.482Z,98010.86
2019-05-18T20:26:05.588Z,98010.70
2019-05-18T20:28:35.138Z,98010.86
2019-05-18T20:31:04.351Z,98009.88
2019-05-18T20:33:35.521Z,98009.88
2019-05-18T20:36:05.300Z,98016.54
2019-05-18T20:38:37.368Z,98009.02
2019-05-18T20:41:06.694Z,98007.14
2019-05-18T20:43:36.473Z,98005.69
2019-05-18T20:46:06.127Z,98010.03
2019-05-18T20:48:36.016Z,98014.38
2019-05-18T20:51:05.268Z,98018.55
2019-05-18T20:53:35.460Z,98022.06
2019-05-18T20:56:05.224Z,98011.04
2019-05-18T20:58:40.071Z,98013.36
2019-05-18T21:01:06.787Z,98015.20
2019-05-18T21:03:36.970Z,98016.33
2019-05-18T21:06:06.421Z,98008.69
2019-05-18T21:08:36.193Z,98007.47
2019-05-18T21:11:05.693Z,98007.97
2019-05-18T21:13:35.138Z,98012.98
2019-05-18T21:16:06.119Z,98024.02
2019-05-18T21:18:35.565Z,98018.20
2019-05-18T21:21:06.220Z,98019.06
2019-05-18T21:23:35.388Z,98019.05
2019-05-18T21:26:04.554Z,98012.70
2019-05-18T21:28:33.707Z,98008.38
2019-05-18T21:31:02.889Z,98014.88
2019-05-18T21:33:35.417Z,98012.53
2019-05-18T21:36:05.376Z,98007.88
2019-05-18T21:38:34.879Z,98013.70
2019-05-18T21:41:04.669Z,98015.70
2019-05-18T21:43:33.819Z,98021.89
2019-05-18T21:46:02.992Z,98019.55
2019-05-18T21:48:32.163Z,98019.73
2019-05-18T21:51:01.598Z,98020.58
2019-05-18T21:53:31.458Z,98017.38
2019-05-18T21:56:00.959Z,98024.06
2019-05-18T21:58:30.724Z,98024.54
2019-05-18T22:01:00.283Z,98021.36
2019-05-18T22:03:29.477Z,98018.49
2019-05-18T22:05:59.036Z,98016.48
2019-05-18T22:08:28.232Z,98021.47
2019-05-18T22:10:58.867Z,98032.46
2019-05-18T22:13:28.338Z,98032.85
2019-05-18T22:15:58.589Z,98033.97
2019-05-18T22:18:27.786Z,98028.14
2019-05-18T22:20:56.963Z,98029.14
2019-05-18T22:23:27.194Z,98030.14
2019-05-18T22:25:57.302Z,98027.14
2019-05-18T22:28:26.988Z,98030.31
2019-05-18T22:30:58.317Z,98035.44
2019-05-18T22:33:29.873Z,98036.02
2019-05-18T22:35:59.875Z,98064.81
2019-05-18T22:38:31.376Z,98081.21
2019-05-18T22:41:01.152Z,98074.56
2019-05-18T22:43:30.626Z,98080.08
2019-05-18T22:46:01.122Z,98087.49
2019-05-18T22:48:41.469Z,98094.73
2019-05-18T22:51:05.257Z,98090.66
2019-05-18T22:53:37.174Z,98089.66
2019-05-18T22:56:08.628Z,98097.71
2019-05-18T22:58:39.359Z,98094.00
2019-05-18T23:01:08.524Z,98092.55
2019-05-18T23:03:38.018Z,98089.73
2019-05-18T23:06:07.454Z,98093.33
2019-05-18T23:08:38.083Z,98082.08
2019-05-18T23:11:07.545Z,98085.59
2019-05-18T23:13:37.761Z,98081.72
2019-05-18T23:16:07.222Z,98078.40
2019-05-18T23:18:37.034Z,98079.05
2019-05-18T23:21:06.505Z,98075.13
2019-05-18T23:23:36.007Z,98068.38
2019-05-18T23:26:05.406Z,98064.38
2019-05-18T23:28:34.877Z,98061.06
2019-05-18T23:31:05.783Z,98060.06
2019-05-18T23:33:35.228Z,98052.73
2019-05-18T23:36:07.428Z,98053.06
2019-05-18T23:38:38.025Z,98042.22
2019-05-18T23:41:07.684Z,98041.50
2019-05-18T23:43:37.362Z,98033.41
2019-05-18T23:46:07.686Z,98030.48
2019-05-18T23:48:37.126Z,98023.20
2019-05-18T23:51:06.598Z,98026.37
2019-05-18T23:53:36.314Z,98022.92
2019-05-18T23:56:06.055Z,98021.88
2019-05-18T23:58:35.564Z,98021.80
